sensor_id;sensor_type;location;lat;lon;timestamp;P1;durP1;ratioP1;P2;durP2;ratioP2
39078;SDS011;24829;49.208;12.080;2023-02-01T00:00:53;8.65;;;6.07;;
39078;SDS011;24829;49.208;12.080;2023-02-01T00:03:19;8.88;;;5.35;;
39078;SDS011;24829;49.208;12.080;2023-02-01T00:05:44;10.80;;;6.78;;
39078;SDS011;24829;49.208;12.080;2023-02-01T00:08:19;10.82;;;5.70;;
39078;SDS011;24829;49.208;12.080;2023-02-01T00:10:44;8.35;;;5.10;;
39078;SDS011;24829;49.208;12.080;2023-02-01T00:13:10;10.60;;;6.10;;
39078;SDS011;24829;49.208;12.080;2023-02-01T00:15:35;10.10;;;5.82;;
39078;SDS011;24829;49.208;12.080;2023-02-01T00:18:01;10.68;;;5.57;;
39078;SDS011;24829;49.208;12.080;2023-02-01T00:20:26;7.80;;;4.68;;
39078;SDS011;24829;49.208;12.080;2023-02-01T00:22:52;10.52;;;5.40;;
39078;SDS011;24829;49.208;12.080;2023-02-01T00:25:17;8.05;;;4.70;;
39078;SDS011;24829;49.208;12.080;2023-02-01T00:27:43;8.48;;;4.63;;
39078;SDS011;24829;49.208;12.080;2023-02-01T00:30:13;5.13;;;3.47;;
39078;SDS011;24829;49.208;12.080;2023-02-01T00:32:38;9.23;;;4.07;;
39078;SDS011;24829;49.208;12.080;2023-02-01T00:35:04;4.97;;;3.28;;
39078;SDS011;24829;49.208;12.080;2023-02-01T00:37:30;5.00;;;3.58;;
39078;SDS011;24829;49.208;12.080;2023-02-01T00:39:55;5.72;;;3.65;;
39078;SDS011;24829;49.208;12.080;2023-02-01T00:42:21;6.60;;;3.88;;
39078;SDS011;24829;49.208;12.080;2023-02-01T00:44:46;6.75;;;3.40;;
39078;SDS011;24829;49.208;12.080;2023-02-01T00:47:12;4.43;;;3.10;;
39078;SDS011;24829;49.208;12.080;2023-02-01T00:49:37;5.65;;;3.67;;
39078;SDS011;24829;49.208;12.080;2023-02-01T00:52:03;7.70;;;3.90;;
39078;SDS011;24829;49.208;12.080;2023-02-01T00:54:29;5.95;;;4.03;;
39078;SDS011;24829;49.208;12.080;2023-02-01T00:56:54;5.05;;;3.60;;
39078;SDS011;24829;49.208;12.080;2023-02-01T00:59:20;6.20;;;4.18;;
39078;SDS011;24829;49.208;12.080;2023-02-01T01:01:45;7.55;;;4.70;;
39078;SDS011;24829;49.208;12.080;2023-02-01T01:04:11;7.10;;;4.38;;
39078;SDS011;24829;49.208;12.080;2023-02-01T01:06:36;6.30;;;4.35;;
39078;SDS011;24829;49.208;12.080;2023-02-01T01:09:03;7.40;;;4.22;;
39078;SDS011;24829;49.208;12.080;2023-02-01T01:11:31;7.10;;;4.90;;
39078;SDS011;24829;49.208;12.080;2023-02-01T01:13:59;7.43;;;3.72;;
39078;SDS011;24829;49.208;12.080;2023-02-01T01:16:26;8.45;;;4.57;;
39078;SDS011;24829;49.208;12.080;2023-02-01T01:18:55;8.13;;;4.78;;
39078;SDS011;24829;49.208;12.080;2023-02-01T01:21:21;7.63;;;4.50;;
39078;SDS011;24829;49.208;12.080;2023-02-01T01:23:48;10.40;;;5.50;;
39078;SDS011;24829;49.208;12.080;2023-02-01T01:26:15;9.90;;;5.93;;
39078;SDS011;24829;49.208;12.080;2023-02-01T01:28:45;10.47;;;5.37;;
39078;SDS011;24829;49.208;12.080;2023-02-01T01:31:11;9.10;;;5.75;;
39078;SDS011;24829;49.208;12.080;2023-02-01T01:33:38;11.10;;;6.03;;
39078;SDS011;24829;49.208;12.080;2023-02-01T01:36:04;11.90;;;6.07;;
39078;SDS011;24829;49.208;12.080;2023-02-01T01:38:31;10.02;;;6.13;;
39078;SDS011;24829;49.208;12.080;2023-02-01T01:40:56;10.20;;;5.85;;
39078;SDS011;24829;49.208;12.080;2023-02-01T01:43:22;9.82;;;6.18;;
39078;SDS011;24829;49.208;12.080;2023-02-01T01:45:48;8.45;;;5.80;;
39078;SDS011;24829;49.208;12.080;2023-02-01T01:48:25;10.73;;;6.90;;
39078;SDS011;24829;49.208;12.080;2023-02-01T01:50:56;9.45;;;5.68;;
39078;SDS011;24829;49.208;12.080;2023-02-01T01:53:27;10.30;;;6.50;;
39078;SDS011;24829;49.208;12.080;2023-02-01T01:55:56;8.20;;;5.50;;
39078;SDS011;24829;49.208;12.080;2023-02-01T01:58:23;11.98;;;6.28;;
39078;SDS011;24829;49.208;12.080;2023-02-01T02:00:51;9.05;;;6.03;;
39078;SDS011;24829;49.208;12.080;2023-02-01T02:03:20;10.75;;;6.50;;
39078;SDS011;24829;49.208;12.080;2023-02-01T02:05:50;10.82;;;6.43;;
39078;SDS011;24829;49.208;12.080;2023-02-01T02:08:17;14.10;;;6.47;;
39078;SDS011;24829;49.208;12.080;2023-02-01T02:10:45;10.02;;;6.43;;
39078;SDS011;24829;49.208;12.080;2023-02-01T02:13:32;10.13;;;6.80;;
39078;SDS011;24829;49.208;12.080;2023-02-01T02:16:11;10.93;;;5.38;;
39078;SDS011;24829;49.208;12.080;2023-02-01T02:18:49;10.88;;;5.88;;
39078;SDS011;24829;49.208;12.080;2023-02-01T02:21:54;10.38;;;7.40;;
39078;SDS011;24829;49.208;12.080;2023-02-01T02:30:06;10.40;;;6.65;;
39078;SDS011;24829;49.208;12.080;2023-02-01T02:38:02;10.70;;;6.28;;
39078;SDS011;24829;49.208;12.080;2023-02-01T02:45:48;7.80;;;5.30;;
39078;SDS011;24829;49.208;12.080;2023-02-01T02:49:08;7.85;;;5.65;;
39078;SDS011;24829;49.208;12.080;2023-02-01T02:51:41;8.85;;;5.05;;
39078;SDS011;24829;49.208;12.080;2023-02-01T02:54:30;6.88;;;4.22;;
39078;SDS011;24829;49.208;12.080;2023-02-01T02:57:12;9.07;;;5.35;;
39078;SDS011;24829;49.208;12.080;2023-02-01T02:59:59;8.02;;;4.07;;
39078;SDS011;24829;49.208;12.080;2023-02-01T03:02:47;7.13;;;4.05;;
39078;SDS011;24829;49.208;12.080;2023-02-01T03:05:33;6.85;;;3.47;;
39078;SDS011;24829;49.208;12.080;2023-02-01T03:08:15;12.93;;;3.40;;
39078;SDS011;24829;49.208;12.080;2023-02-01T03:13:25;5.45;;;3.67;;
39078;SDS011;24829;49.208;12.080;2023-02-01T03:15:58;7.32;;;3.72;;
39078;SDS011;24829;49.208;12.080;2023-02-01T03:18:49;7.88;;;3.75;;
39078;SDS011;24829;49.208;12.080;2023-02-01T03:21:18;5.57;;;3.90;;
39078;SDS011;24829;49.208;12.080;2023-02-01T03:23:59;6.90;;;3.70;;
39078;SDS011;24829;49.208;12.080;2023-02-01T03:26:30;6.18;;;3.53;;
39078;SDS011;24829;49.208;12.080;2023-02-01T03:29:00;7.97;;;4.13;;
39078;SDS011;24829;49.208;12.080;2023-02-01T03:31:32;6.03;;;3.25;;
39078;SDS011;24829;49.208;12.080;2023-02-01T03:33:58;6.40;;;3.72;;
39078;SDS011;24829;49.208;12.080;2023-02-01T03:36:29;5.90;;;4.20;;
39078;SDS011;24829;49.208;12.080;2023-02-01T03:41:43;8.02;;;4.53;;
39078;SDS011;24829;49.208;12.080;2023-02-01T03:46:49;7.28;;;4.57;;
39078;SDS011;24829;49.208;12.080;2023-02-01T03:49:27;6.78;;;4.10;;
39078;SDS011;24829;49.208;12.080;2023-02-01T03:51:58;7.55;;;4.28;;
39078;SDS011;24829;49.208;12.080;2023-02-01T03:54:24;10.70;;;5.88;;
39078;SDS011;24829;49.208;12.080;2023-02-01T03:56:52;7.57;;;5.75;;
39078;SDS011;24829;49.208;12.080;2023-02-01T03:59:20;7.63;;;4.75;;
39078;SDS011;24829;49.208;12.080;2023-02-01T04:01:46;9.00;;;4.63;;
39078;SDS011;24829;49.208;12.080;2023-02-01T04:04:11;7.60;;;4.68;;
39078;SDS011;24829;49.208;12.080;2023-02-01T04:06:44;6.85;;;5.25;;
39078;SDS011;24829;49.208;12.080;2023-02-01T04:09:13;9.50;;;5.85;;
39078;SDS011;24829;49.208;12.080;2023-02-01T04:11:39;6.80;;;4.65;;
39078;SDS011;24829;49.208;12.080;2023-02-01T04:14:05;9.48;;;4.88;;
39078;SDS011;24829;49.208;12.080;2023-02-01T04:16:31;6.72;;;4.45;;
39078;SDS011;24829;49.208;12.080;2023-02-01T04:18:57;8.80;;;4.88;;
39078;SDS011;24829;49.208;12.080;2023-02-01T04:21:23;10.52;;;4.72;;
39078;SDS011;24829;49.208;12.080;2023-02-01T04:23:49;6.22;;;4.40;;
39078;SDS011;24829;49.208;12.080;2023-02-01T04:26:15;6.55;;;4.00;;
39078;SDS011;24829;49.208;12.080;2023-02-01T04:28:41;6.30;;;3.88;;
39078;SDS011;24829;49.208;12.080;2023-02-01T04:31:07;6.72;;;4.65;;
39078;SDS011;24829;49.208;12.080;2023-02-01T04:33:33;7.55;;;4.95;;
39078;SDS011;24829;49.208;12.080;2023-02-01T04:35:58;7.25;;;5.43;;
39078;SDS011;24829;49.208;12.080;2023-02-01T04:38:24;7.68;;;5.63;;
39078;SDS011;24829;49.208;12.080;2023-02-01T04:40:49;7.80;;;4.55;;
39078;SDS011;24829;49.208;12.080;2023-02-01T04:43:16;9.98;;;5.55;;
39078;SDS011;24829;49.208;12.080;2023-02-01T04:45:46;9.30;;;4.75;;
39078;SDS011;24829;49.208;12.080;2023-02-01T04:48:13;9.73;;;5.07;;
39078;SDS011;24829;49.208;12.080;2023-02-01T04:50:39;9.82;;;6.88;;
39078;SDS011;24829;49.208;12.080;2023-02-01T04:53:05;10.65;;;5.80;;
39078;SDS011;24829;49.208;12.080;2023-02-01T04:55:30;7.13;;;4.93;;
39078;SDS011;24829;49.208;12.080;2023-02-01T04:57:56;10.50;;;5.47;;
39078;SDS011;24829;49.208;12.080;2023-02-01T05:00:21;7.70;;;5.45;;
39078;SDS011;24829;49.208;12.080;2023-02-01T05:02:47;8.35;;;5.60;;
39078;SDS011;24829;49.208;12.080;2023-02-01T05:05:12;8.27;;;5.32;;
39078;SDS011;24829;49.208;12.080;2023-02-01T05:07:38;11.57;;;5.72;;
39078;SDS011;24829;49.208;12.080;2023-02-01T05:10:04;8.85;;;5.63;;
39078;SDS011;24829;49.208;12.080;2023-02-01T05:12:29;9.80;;;6.15;;
39078;SDS011;24829;49.208;12.080;2023-02-01T05:15:14;10.07;;;6.25;;
39078;SDS011;24829;49.208;12.080;2023-02-01T05:17:39;10.57;;;6.40;;
39078;SDS011;24829;49.208;12.080;2023-02-01T05:20:05;10.80;;;7.20;;
39078;SDS011;24829;49.208;12.080;2023-02-01T05:22:32;11.18;;;6.47;;
39078;SDS011;24829;49.208;12.080;2023-02-01T05:24:57;8.13;;;5.38;;
39078;SDS011;24829;49.208;12.080;2023-02-01T05:27:23;7.40;;;5.07;;
39078;SDS011;24829;49.208;12.080;2023-02-01T05:29:48;8.60;;;5.18;;
39078;SDS011;24829;49.208;12.080;2023-02-01T05:32:14;12.63;;;6.93;;
39078;SDS011;24829;49.208;12.080;2023-02-01T05:34:39;7.85;;;5.13;;
39078;SDS011;24829;49.208;12.080;2023-02-01T05:37:05;10.63;;;5.30;;
39078;SDS011;24829;49.208;12.080;2023-02-01T05:39:30;9.60;;;4.10;;
39078;SDS011;24829;49.208;12.080;2023-02-01T05:41:56;7.70;;;4.43;;
39078;SDS011;24829;49.208;12.080;2023-02-01T05:44:21;9.40;;;4.38;;
39078;SDS011;24829;49.208;12.080;2023-02-01T05:46:47;10.15;;;4.38;;
39078;SDS011;24829;49.208;12.080;2023-02-01T05:49:13;10.23;;;4.18;;
39078;SDS011;24829;49.208;12.080;2023-02-01T05:51:38;6.22;;;3.88;;
39078;SDS011;24829;49.208;12.080;2023-02-01T05:54:04;8.35;;;4.47;;
39078;SDS011;24829;49.208;12.080;2023-02-01T05:56:29;6.70;;;3.83;;
39078;SDS011;24829;49.208;12.080;2023-02-01T05:58:55;6.70;;;4.18;;
39078;SDS011;24829;49.208;12.080;2023-02-01T06:01:20;7.72;;;4.30;;
39078;SDS011;24829;49.208;12.080;2023-02-01T06:03:46;8.65;;;4.05;;
39078;SDS011;24829;49.208;12.080;2023-02-01T06:06:11;7.57;;;4.35;;
39078;SDS011;24829;49.208;12.080;2023-02-01T06:08:37;8.63;;;4.13;;
39078;SDS011;24829;49.208;12.080;2023-02-01T06:11:05;9.00;;;3.97;;
39078;SDS011;24829;49.208;12.080;2023-02-01T06:13:31;5.15;;;3.85;;
39078;SDS011;24829;49.208;12.080;2023-02-01T06:15:57;5.47;;;3.90;;
39078;SDS011;24829;49.208;12.080;2023-02-01T06:18:23;4.38;;;3.28;;
39078;SDS011;24829;49.208;12.080;2023-02-01T06:20:55;7.88;;;3.75;;
39078;SDS011;24829;49.208;12.080;2023-02-01T06:23:22;6.07;;;3.47;;
39078;SDS011;24829;49.208;12.080;2023-02-01T06:25:49;5.90;;;3.78;;
39078;SDS011;24829;49.208;12.080;2023-02-01T06:28:23;4.85;;;3.20;;
39078;SDS011;24829;49.208;12.080;2023-02-01T06:30:49;4.25;;;2.30;;
39078;SDS011;24829;49.208;12.080;2023-02-01T06:33:14;5.00;;;2.45;;
39078;SDS011;24829;49.208;12.080;2023-02-01T06:35:43;3.50;;;2.30;;
39078;SDS011;24829;49.208;12.080;2023-02-01T06:38:12;4.22;;;2.08;;
39078;SDS011;24829;49.208;12.080;2023-02-01T06:40:38;1.60;;;1.30;;
39078;SDS011;24829;49.208;12.080;2023-02-01T06:43:04;3.75;;;1.23;;
39078;SDS011;24829;49.208;12.080;2023-02-01T06:45:30;2.95;;;1.20;;
39078;SDS011;24829;49.208;12.080;2023-02-01T06:47:56;2.17;;;0.95;;
39078;SDS011;24829;49.208;12.080;2023-02-01T06:50:22;2.50;;;1.23;;
39078;SDS011;24829;49.208;12.080;2023-02-01T06:52:48;3.30;;;1.17;;
39078;SDS011;24829;49.208;12.080;2023-02-01T06:55:14;2.70;;;1.33;;
39078;SDS011;24829;49.208;12.080;2023-02-01T06:57:39;2.60;;;1.55;;
39078;SDS011;24829;49.208;12.080;2023-02-01T07:00:05;4.20;;;1.73;;
39078;SDS011;24829;49.208;12.080;2023-02-01T07:02:31;3.35;;;1.73;;
39078;SDS011;24829;49.208;12.080;2023-02-01T07:04:56;3.13;;;1.40;;
39078;SDS011;24829;49.208;12.080;2023-02-01T07:07:22;1.83;;;1.00;;
39078;SDS011;24829;49.208;12.080;2023-02-01T07:09:48;3.30;;;0.95;;
39078;SDS011;24829;49.208;12.080;2023-02-01T07:12:14;1.85;;;1.10;;
39078;SDS011;24829;49.208;12.080;2023-02-01T07:14:40;4.90;;;1.00;;
39078;SDS011;24829;49.208;12.080;2023-02-01T07:17:06;3.17;;;1.10;;
39078;SDS011;24829;49.208;12.080;2023-02-01T07:19:32;3.03;;;1.10;;
39078;SDS011;24829;49.208;12.080;2023-02-01T07:21:57;1.50;;;0.90;;
39078;SDS011;24829;49.208;12.080;2023-02-01T07:24:23;6.00;;;3.33;;
39078;SDS011;24829;49.208;12.080;2023-02-01T07:26:49;3.83;;;1.80;;
39078;SDS011;24829;49.208;12.080;2023-02-01T07:29:16;2.63;;;1.55;;
39078;SDS011;24829;49.208;12.080;2023-02-01T07:31:42;1.73;;;1.27;;
39078;SDS011;24829;49.208;12.080;2023-02-01T07:34:08;2.53;;;1.63;;
39078;SDS011;24829;49.208;12.080;2023-02-01T07:36:34;2.97;;;1.55;;
39078;SDS011;24829;49.208;12.080;2023-02-01T07:39:01;2.03;;;1.38;;
39078;SDS011;24829;49.208;12.080;2023-02-01T07:41:29;1.73;;;1.40;;
39078;SDS011;24829;49.208;12.080;2023-02-01T07:43:55;3.35;;;1.75;;
39078;SDS011;24829;49.208;12.080;2023-02-01T07:46:20;2.78;;;1.75;;
39078;SDS011;24829;49.208;12.080;2023-02-01T07:48:46;2.53;;;2.00;;
39078;SDS011;24829;49.208;12.080;2023-02-01T07:51:12;3.03;;;1.70;;
39078;SDS011;24829;49.208;12.080;2023-02-01T07:53:39;2.33;;;1.50;;
39078;SDS011;24829;49.208;12.080;2023-02-01T07:56:39;3.88;;;1.52;;
39078;SDS011;24829;49.208;12.080;2023-02-01T07:58:57;3.57;;;1.70;;
39078;SDS011;24829;49.208;12.080;2023-02-01T08:01:25;3.50;;;1.65;;
39078;SDS011;24829;49.208;12.080;2023-02-01T08:03:54;3.17;;;1.80;;
39078;SDS011;24829;49.208;12.080;2023-02-01T08:06:21;3.70;;;2.28;;
39078;SDS011;24829;49.208;12.080;2023-02-01T08:08:48;2.95;;;1.88;;
39078;SDS011;24829;49.208;12.080;2023-02-01T08:11:14;7.13;;;2.83;;
39078;SDS011;24829;49.208;12.080;2023-02-01T08:13:41;5.28;;;2.67;;
39078;SDS011;24829;49.208;12.080;2023-02-01T08:16:07;7.70;;;3.03;;
39078;SDS011;24829;49.208;12.080;2023-02-01T08:18:35;5.93;;;3.10;;
39078;SDS011;24829;49.208;12.080;2023-02-01T08:21:03;7.78;;;3.75;;
39078;SDS011;24829;49.208;12.080;2023-02-01T08:23:29;9.35;;;5.55;;
39078;SDS011;24829;49.208;12.080;2023-02-01T08:26:03;8.50;;;4.82;;
39078;SDS011;24829;49.208;12.080;2023-02-01T08:28:35;12.13;;;5.35;;
39078;SDS011;24829;49.208;12.080;2023-02-01T08:31:05;9.25;;;4.28;;
39078;SDS011;24829;49.208;12.080;2023-02-01T08:33:33;7.15;;;4.82;;
39078;SDS011;24829;49.208;12.080;2023-02-01T08:36:00;7.75;;;4.78;;
39078;SDS011;24829;49.208;12.080;2023-02-01T08:38:27;7.93;;;4.70;;
39078;SDS011;24829;49.208;12.080;2023-02-01T08:40:52;11.32;;;4.60;;
39078;SDS011;24829;49.208;12.080;2023-02-01T08:43:18;11.15;;;5.10;;
39078;SDS011;24829;49.208;12.080;2023-02-01T08:45:44;15.55;;;5.93;;
39078;SDS011;24829;49.208;12.080;2023-02-01T08:48:09;12.27;;;5.72;;
39078;SDS011;24829;49.208;12.080;2023-02-01T08:50:35;9.82;;;5.40;;
39078;SDS011;24829;49.208;12.080;2023-02-01T08:53:00;10.07;;;4.38;;
39078;SDS011;24829;49.208;12.080;2023-02-01T08:55:26;10.77;;;4.70;;
39078;SDS011;24829;49.208;12.080;2023-02-01T08:57:52;7.57;;;4.47;;
39078;SDS011;24829;49.208;12.080;2023-02-01T09:00:18;7.82;;;4.50;;
39078;SDS011;24829;49.208;12.080;2023-02-01T09:02:44;10.07;;;4.97;;
39078;SDS011;24829;49.208;12.080;2023-02-01T09:05:10;12.65;;;4.72;;
39078;SDS011;24829;49.208;12.080;2023-02-01T09:07:36;8.68;;;4.60;;
39078;SDS011;24829;49.208;12.080;2023-02-01T09:10:02;8.88;;;3.72;;
39078;SDS011;24829;49.208;12.080;2023-02-01T09:12:29;14.10;;;4.05;;
39078;SDS011;24829;49.208;12.080;2023-02-01T09:14:56;13.15;;;3.38;;
39078;SDS011;24829;49.208;12.080;2023-02-01T09:17:24;5.85;;;3.05;;
39078;SDS011;24829;49.208;12.080;2023-02-01T09:19:50;10.05;;;2.75;;
39078;SDS011;24829;49.208;12.080;2023-02-01T09:22:16;5.80;;;2.50;;
39078;SDS011;24829;49.208;12.080;2023-02-01T09:24:41;9.30;;;2.70;;
39078;SDS011;24829;49.208;12.080;2023-02-01T09:27:07;6.05;;;2.80;;
39078;SDS011;24829;49.208;12.080;2023-02-01T09:29:33;5.40;;;2.50;;
39078;SDS011;24829;49.208;12.080;2023-02-01T09:31:59;6.35;;;2.70;;
39078;SDS011;24829;49.208;12.080;2023-02-01T09:34:25;6.43;;;2.47;;
39078;SDS011;24829;49.208;12.080;2023-02-01T09:36:50;9.20;;;2.55;;
39078;SDS011;24829;49.208;12.080;2023-02-01T09:39:16;9.88;;;3.72;;
39078;SDS011;24829;49.208;12.080;2023-02-01T09:46:42;6.05;;;2.05;;
39078;SDS011;24829;49.208;12.080;2023-02-01T09:51:59;10.13;;;2.72;;
39078;SDS011;24829;49.208;12.080;2023-02-01T09:54:29;10.82;;;2.58;;
39078;SDS011;24829;49.208;12.080;2023-02-01T09:57:11;9.48;;;2.28;;
39078;SDS011;24829;49.208;12.080;2023-02-01T09:59:50;9.10;;;2.38;;
39078;SDS011;24829;49.208;12.080;2023-02-01T10:02:26;10.43;;;2.67;;
39078;SDS011;24829;49.208;12.080;2023-02-01T10:04:57;7.70;;;2.92;;
39078;SDS011;24829;49.208;12.080;2023-02-01T10:07:37;11.73;;;2.67;;
39078;SDS011;24829;49.208;12.080;2023-02-01T10:23:59;5.82;;;3.13;;
39078;SDS011;24829;49.208;12.080;2023-02-01T10:26:33;5.28;;;3.33;;
39078;SDS011;24829;49.208;12.080;2023-02-01T10:29:03;7.20;;;3.28;;
39078;SDS011;24829;49.208;12.080;2023-02-01T10:31:34;10.45;;;2.55;;
39078;SDS011;24829;49.208;12.080;2023-02-01T10:36:56;4.82;;;2.33;;
39078;SDS011;24829;49.208;12.080;2023-02-01T10:39:25;7.63;;;1.90;;
39078;SDS011;24829;49.208;12.080;2023-02-01T10:41:51;4.63;;;2.03;;
39078;SDS011;24829;49.208;12.080;2023-02-01T10:44:18;3.40;;;1.25;;
39078;SDS011;24829;49.208;12.080;2023-02-01T10:46:49;5.45;;;1.60;;
39078;SDS011;24829;49.208;12.080;2023-02-01T10:49:24;2.60;;;1.20;;
39078;SDS011;24829;49.208;12.080;2023-02-01T10:51:55;7.88;;;1.10;;
39078;SDS011;24829;49.208;12.080;2023-02-01T10:54:36;7.53;;;2.65;;
39078;SDS011;24829;49.208;12.080;2023-02-01T10:57:06;3.42;;;1.20;;
39078;SDS011;24829;49.208;12.080;2023-02-01T10:59:44;3.85;;;1.40;;
39078;SDS011;24829;49.208;12.080;2023-02-01T11:02:26;5.32;;;1.80;;
39078;SDS011;24829;49.208;12.080;2023-02-01T11:05:00;5.40;;;2.33;;
39078;SDS011;24829;49.208;12.080;2023-02-01T11:07:34;8.10;;;1.77;;
39078;SDS011;24829;49.208;12.080;2023-02-01T11:10:01;5.88;;;1.67;;
39078;SDS011;24829;49.208;12.080;2023-02-01T11:14:59;6.95;;;2.42;;
39078;SDS011;24829;49.208;12.080;2023-02-01T11:17:45;12.95;;;1.80;;
39078;SDS011;24829;49.208;12.080;2023-02-01T11:20:20;6.75;;;1.80;;
39078;SDS011;24829;49.208;12.080;2023-02-01T11:22:58;7.78;;;2.13;;
39078;SDS011;24829;49.208;12.080;2023-02-01T11:25:24;13.70;;;2.78;;
39078;SDS011;24829;49.208;12.080;2023-02-01T11:27:51;8.25;;;2.42;;
39078;SDS011;24829;49.208;12.080;2023-02-01T11:30:31;8.55;;;2.03;;
39078;SDS011;24829;49.208;12.080;2023-02-01T11:33:01;11.10;;;2.25;;
39078;SDS011;24829;49.208;12.080;2023-02-01T11:35:30;16.90;;;2.58;;
39078;SDS011;24829;49.208;12.080;2023-02-01T11:37:57;5.50;;;2.00;;
39078;SDS011;24829;49.208;12.080;2023-02-01T11:40:57;8.52;;;2.55;;
39078;SDS011;24829;49.208;12.080;2023-02-01T11:45:59;8.20;;;2.22;;
39078;SDS011;24829;49.208;12.080;2023-02-01T11:48:32;11.38;;;2.90;;
39078;SDS011;24829;49.208;12.080;2023-02-01T11:51:08;7.63;;;1.80;;
39078;SDS011;24829;49.208;12.080;2023-02-01T12:06:08;13.15;;;3.50;;
39078;SDS011;24829;49.208;12.080;2023-02-01T12:14:16;4.35;;;1.50;;
39078;SDS011;24829;49.208;12.080;2023-02-01T12:22:28;8.63;;;2.00;;
39078;SDS011;24829;49.208;12.080;2023-02-01T12:35:44;9.50;;;1.42;;
39078;SDS011;24829;49.208;12.080;2023-02-01T12:46:02;8.27;;;1.53;;
39078;SDS011;24829;49.208;12.080;2023-02-01T12:48:38;6.05;;;1.55;;
39078;SDS011;24829;49.208;12.080;2023-02-01T12:51:14;5.32;;;1.52;;
39078;SDS011;24829;49.208;12.080;2023-02-01T12:53:51;9.55;;;2.00;;
39078;SDS011;24829;49.208;12.080;2023-02-01T12:56:22;6.07;;;1.75;;
39078;SDS011;24829;49.208;12.080;2023-02-01T12:59:16;7.18;;;1.90;;
39078;SDS011;24829;49.208;12.080;2023-02-01T13:01:56;6.93;;;1.63;;
39078;SDS011;24829;49.208;12.080;2023-02-01T13:04:33;9.00;;;2.72;;
39078;SDS011;24829;49.208;12.080;2023-02-01T13:09:57;3.85;;;1.38;;
39078;SDS011;24829;49.208;12.080;2023-02-01T13:12:37;6.40;;;1.67;;
39078;SDS011;24829;49.208;12.080;2023-02-01T13:15:16;7.75;;;1.75;;
39078;SDS011;24829;49.208;12.080;2023-02-01T13:17:49;5.00;;;1.70;;
39078;SDS011;24829;49.208;12.080;2023-02-01T13:23:00;6.18;;;1.50;;
39078;SDS011;24829;49.208;12.080;2023-02-01T13:28:02;7.30;;;1.73;;
39078;SDS011;24829;49.208;12.080;2023-02-01T13:30:38;6.35;;;1.77;;
39078;SDS011;24829;49.208;12.080;2023-02-01T13:33:26;5.25;;;2.03;;
39078;SDS011;24829;49.208;12.080;2023-02-01T13:36:15;4.10;;;1.30;;
39078;SDS011;24829;49.208;12.080;2023-02-01T13:42:01;7.57;;;1.80;;
39078;SDS011;24829;49.208;12.080;2023-02-01T13:49:47;8.88;;;1.73;;
39078;SDS011;24829;49.208;12.080;2023-02-01T13:52:21;6.15;;;2.08;;
39078;SDS011;24829;49.208;12.080;2023-02-01T13:55:00;8.35;;;1.80;;
39078;SDS011;24829;49.208;12.080;2023-02-01T13:57:44;13.40;;;2.22;;
39078;SDS011;24829;49.208;12.080;2023-02-01T14:02:59;9.15;;;1.80;;
39078;SDS011;24829;49.208;12.080;2023-02-01T14:10:49;9.52;;;2.38;;
39078;SDS011;24829;49.208;12.080;2023-02-01T14:23:47;9.48;;;2.53;;
39078;SDS011;24829;49.208;12.080;2023-02-01T14:29:17;7.20;;;2.67;;
39078;SDS011;24829;49.208;12.080;2023-02-01T15:00:52;14.60;;;2.75;;
39078;SDS011;24829;49.208;12.080;2023-02-01T15:06:03;18.75;;;8.05;;
39078;SDS011;24829;49.208;12.080;2023-02-01T15:08:33;24.35;;;11.07;;
39078;SDS011;24829;49.208;12.080;2023-02-01T15:11:05;19.75;;;10.60;;
39078;SDS011;24829;49.208;12.080;2023-02-01T15:13:36;17.90;;;8.55;;
39078;SDS011;24829;49.208;12.080;2023-02-01T15:16:03;14.57;;;5.35;;
39078;SDS011;24829;49.208;12.080;2023-02-01T15:18:31;17.13;;;5.05;;
39078;SDS011;24829;49.208;12.080;2023-02-01T15:20:58;10.02;;;4.10;;
39078;SDS011;24829;49.208;12.080;2023-02-01T15:23:24;10.77;;;3.22;;
39078;SDS011;24829;49.208;12.080;2023-02-01T15:25:50;10.25;;;3.03;;
39078;SDS011;24829;49.208;12.080;2023-02-01T15:28:16;12.68;;;3.40;;
39078;SDS011;24829;49.208;12.080;2023-02-01T15:30:56;9.43;;;2.08;;
39078;SDS011;24829;49.208;12.080;2023-02-01T15:33:22;9.45;;;1.80;;
39078;SDS011;24829;49.208;12.080;2023-02-01T15:36:07;9.35;;;1.73;;
39078;SDS011;24829;49.208;12.080;2023-02-01T15:38:37;6.57;;;1.70;;
39078;SDS011;24829;49.208;12.080;2023-02-01T15:41:19;8.95;;;2.00;;
39078;SDS011;24829;49.208;12.080;2023-02-01T15:46:24;6.18;;;1.73;;
39078;SDS011;24829;49.208;12.080;2023-02-01T15:48:55;14.63;;;2.50;;
39078;SDS011;24829;49.208;12.080;2023-02-01T15:51:22;18.60;;;5.38;;
39078;SDS011;24829;49.208;12.080;2023-02-01T15:53:57;11.00;;;2.00;;
39078;SDS011;24829;49.208;12.080;2023-02-01T15:56:29;13.02;;;3.15;;
39078;SDS011;24829;49.208;12.080;2023-02-01T15:59:00;7.28;;;2.25;;
39078;SDS011;24829;49.208;12.080;2023-02-01T16:01:28;12.25;;;2.08;;
39078;SDS011;24829;49.208;12.080;2023-02-01T16:04:02;10.55;;;2.95;;
39078;SDS011;24829;49.208;12.080;2023-02-01T16:09:14;13.15;;;2.53;;
39078;SDS011;24829;49.208;12.080;2023-02-01T16:11:55;7.82;;;1.67;;
39078;SDS011;24829;49.208;12.080;2023-02-01T16:14:22;9.23;;;2.15;;
39078;SDS011;24829;49.208;12.080;2023-02-01T16:16:49;9.40;;;2.00;;
39078;SDS011;24829;49.208;12.080;2023-02-01T16:19:15;11.40;;;1.73;;
39078;SDS011;24829;49.208;12.080;2023-02-01T16:21:41;9.40;;;2.40;;
39078;SDS011;24829;49.208;12.080;2023-02-01T16:24:06;6.43;;;1.38;;
39078;SDS011;24829;49.208;12.080;2023-02-01T16:26:32;14.10;;;1.75;;
39078;SDS011;24829;49.208;12.080;2023-02-01T16:28:59;12.65;;;2.83;;
39078;SDS011;24829;49.208;12.080;2023-02-01T16:31:29;8.45;;;1.92;;
39078;SDS011;24829;49.208;12.080;2023-02-01T16:33:56;10.23;;;1.77;;
39078;SDS011;24829;49.208;12.080;2023-02-01T16:36:22;13.82;;;2.50;;
39078;SDS011;24829;49.208;12.080;2023-02-01T16:38:49;10.35;;;1.27;;
39078;SDS011;24829;49.208;12.080;2023-02-01T16:41:15;10.23;;;2.30;;
39078;SDS011;24829;49.208;12.080;2023-02-01T16:43:42;9.13;;;1.88;;
39078;SDS011;24829;49.208;12.080;2023-02-01T16:46:15;6.85;;;1.52;;
39078;SDS011;24829;49.208;12.080;2023-02-01T16:48:46;15.30;;;2.67;;
39078;SDS011;24829;49.208;12.080;2023-02-01T16:51:15;8.75;;;2.92;;
39078;SDS011;24829;49.208;12.080;2023-02-01T16:53:41;16.33;;;2.13;;
39078;SDS011;24829;49.208;12.080;2023-02-01T16:56:18;7.82;;;1.48;;
39078;SDS011;24829;49.208;12.080;2023-02-01T16:58:49;12.47;;;2.83;;
39078;SDS011;24829;49.208;12.080;2023-02-01T17:01:17;8.70;;;1.63;;
39078;SDS011;24829;49.208;12.080;2023-02-01T17:03:43;6.35;;;1.77;;
39078;SDS011;24829;49.208;12.080;2023-02-01T17:06:11;12.73;;;1.83;;
39078;SDS011;24829;49.208;12.080;2023-02-01T17:08:42;9.80;;;2.60;;
39078;SDS011;24829;49.208;12.080;2023-02-01T17:11:10;6.47;;;1.35;;
39078;SDS011;24829;49.208;12.080;2023-02-01T17:13:38;9.20;;;2.22;;
39078;SDS011;24829;49.208;12.080;2023-02-01T17:16:08;11.07;;;1.95;;
39078;SDS011;24829;49.208;12.080;2023-02-01T17:18:44;7.80;;;1.48;;
39078;SDS011;24829;49.208;12.080;2023-02-01T17:21:12;5.47;;;1.80;;
39078;SDS011;24829;49.208;12.080;2023-02-01T17:23:38;11.07;;;3.33;;
39078;SDS011;24829;49.208;12.080;2023-02-01T17:26:04;12.35;;;2.15;;
39078;SDS011;24829;49.208;12.080;2023-02-01T17:28:29;15.23;;;2.72;;
39078;SDS011;24829;49.208;12.080;2023-02-01T17:30:55;10.48;;;1.73;;
39078;SDS011;24829;49.208;12.080;2023-02-01T17:33:23;10.13;;;1.92;;
39078;SDS011;24829;49.208;12.080;2023-02-01T17:35:51;8.82;;;1.95;;